createdAt,value
2023-03-22T00:01:46.199Z,100.00
2023-03-22T00:04:12.805Z,100.00
2023-03-22T00:06:39.743Z,100.00
2023-03-22T00:09:06.234Z,100.00
2023-03-22T00:11:32.645Z,100.00
2023-03-22T00:13:59.626Z,100.00
2023-03-22T00:16:26.227Z,100.00
2023-03-22T00:18:52.793Z,100.00
2023-03-22T00:21:19.251Z,100.00
2023-03-22T00:23:46.218Z,100.00
2023-03-22T00:26:13.626Z,100.00
2023-03-22T00:28:40.690Z,100.00
2023-03-22T00:31:07.949Z,100.00
2023-03-22T00:33:34.903Z,100.00
2023-03-22T00:36:10.271Z,100.00
2023-03-22T00:38:43.007Z,100.00
2023-03-22T00:41:18.514Z,100.00
2023-03-22T00:43:46.466Z,100.00
2023-03-22T00:46:14.485Z,100.00
2023-03-22T00:48:41.026Z,100.00
2023-03-22T00:51:08.361Z,100.00
2023-03-22T00:53:37.438Z,100.00
2023-03-22T00:56:05.556Z,100.00
2023-03-22T00:58:32.459Z,100.00
2023-03-22T01:00:58.904Z,100.00
2023-03-22T01:03:25.511Z,100.00
2023-03-22T01:05:55.574Z,100.00
2023-03-22T01:08:23.567Z,100.00
2023-03-22T01:10:50.536Z,100.00
2023-03-22T01:13:18.030Z,100.00
2023-03-22T01:15:44.858Z,100.00
2023-03-22T01:18:11.260Z,100.00
2023-03-22T01:20:37.893Z,100.00
2023-03-22T01:23:04.697Z,100.00
2023-03-22T01:25:31.474Z,100.00
2023-03-22T01:27:57.885Z,100.00
2023-03-22T01:30:24.450Z,100.00
2023-03-22T01:32:51.235Z,100.00
2023-03-22T01:35:17.741Z,100.00
2023-03-22T01:37:44.403Z,100.00
2023-03-22T01:40:12.933Z,100.00
2023-03-22T01:42:39.336Z,100.00
2023-03-22T01:45:14.654Z,100.00
2023-03-22T01:47:51.323Z,100.00
2023-03-22T01:50:18.329Z,100.00
2023-03-22T01:52:44.914Z,100.00
2023-03-22T01:55:12.609Z,100.00
2023-03-22T01:57:42.435Z,100.00
2023-03-22T02:00:15.821Z,100.00
2023-03-22T02:02:44.165Z,100.00
2023-03-22T02:05:12.183Z,100.00
2023-03-22T02:07:40.797Z,100.00
2023-03-22T02:10:16.465Z,100.00
2023-03-22T02:13:09.412Z,100.00
2023-03-22T02:15:43.439Z,100.00
2023-03-22T02:18:40.809Z,100.00
2023-03-22T02:21:25.624Z,100.00
2023-03-22T02:24:29.455Z,100.00
2023-03-22T02:27:25.615Z,100.00
2023-03-22T02:30:09.157Z,100.00
2023-03-22T02:32:50.409Z,100.00
2023-03-22T02:35:31.276Z,100.00
2023-03-22T02:38:22.440Z,100.00
2023-03-22T02:41:27.496Z,100.00
2023-03-22T02:43:59.537Z,100.00
2023-03-22T02:46:36.290Z,100.00
2023-03-22T02:49:36.215Z,100.00
2023-03-22T02:52:22.591Z,100.00
2023-03-22T02:55:05.971Z,100.00
2023-03-22T02:58:02.199Z,100.00
2023-03-22T03:00:30.868Z,100.00
2023-03-22T03:03:11.161Z,100.00
2023-03-22T03:05:45.436Z,100.00
2023-03-22T03:08:14.189Z,100.00
2023-03-22T03:10:42.220Z,100.00
2023-03-22T03:13:12.734Z,100.00
2023-03-22T03:15:43.836Z,100.00
2023-03-22T03:18:26.354Z,100.00
2023-03-22T03:21:02.311Z,100.00
2023-03-22T03:23:37.697Z,100.00
2023-03-22T03:26:16.272Z,100.00
2023-03-22T03:28:58.093Z,100.00
2023-03-22T03:31:43.566Z,100.00
2023-03-22T03:34:30.588Z,100.00
2023-03-22T03:37:04.909Z,100.00
2023-03-22T03:39:34.819Z,100.00
2023-03-22T03:42:03.515Z,100.00
2023-03-22T03:44:31.595Z,100.00
2023-03-22T03:46:59.000Z,100.00
2023-03-22T03:49:27.076Z,100.00
2023-03-22T03:51:55.626Z,100.00
2023-03-22T03:54:23.090Z,100.00
2023-03-22T03:56:49.522Z,100.00
2023-03-22T03:59:17.340Z,100.00
2023-03-22T04:01:49.932Z,100.00
2023-03-22T04:04:26.802Z,100.00
2023-03-22T04:06:59.209Z,100.00
2023-03-22T04:09:28.212Z,100.00
2023-03-22T04:11:56.046Z,100.00
2023-03-22T04:14:23.109Z,100.00
2023-03-22T04:16:50.069Z,100.00
2023-03-22T04:19:17.163Z,100.00
2023-03-22T04:21:43.671Z,100.00
2023-03-22T04:24:10.471Z,100.00
2023-03-22T04:26:37.034Z,100.00
2023-03-22T04:29:03.944Z,100.00
2023-03-22T04:31:31.836Z,100.00
2023-03-22T04:34:00.356Z,100.00
2023-03-22T04:36:31.054Z,100.00
2023-03-22T04:38:58.067Z,100.00
2023-03-22T04:41:24.562Z,100.00
2023-03-22T04:43:51.603Z,100.00
2023-03-22T04:46:18.046Z,100.00
2023-03-22T04:48:44.629Z,100.00
2023-03-22T04:51:11.437Z,100.00
2023-03-22T04:53:40.906Z,100.00
2023-03-22T04:56:10.518Z,100.00
2023-03-22T04:58:40.084Z,100.00
2023-03-22T05:01:07.447Z,100.00
2023-03-22T05:03:36.596Z,100.00
2023-03-22T05:06:06.533Z,100.00
2023-03-22T05:08:33.807Z,100.00
2023-03-22T05:11:11.644Z,100.00
2023-03-22T05:13:38.275Z,100.00
2023-03-22T05:16:06.400Z,100.00
2023-03-22T05:18:33.332Z,100.00
2023-03-22T05:21:00.923Z,100.00
2023-03-22T05:23:27.485Z,100.00
2023-03-22T05:25:54.176Z,100.00
2023-03-22T05:28:21.391Z,100.00
2023-03-22T05:30:49.238Z,100.00
2023-03-22T05:33:16.958Z,100.00
2023-03-22T05:35:43.745Z,100.00
2023-03-22T05:38:10.706Z,100.00
2023-03-22T05:40:37.635Z,100.00
2023-03-22T05:43:04.521Z,100.00
2023-03-22T05:45:32.420Z,100.00
2023-03-22T05:47:58.954Z,100.00
2023-03-22T05:50:25.343Z,100.00
2023-03-22T05:52:52.152Z,100.00
2023-03-22T05:55:19.301Z,100.00
2023-03-22T05:57:46.767Z,100.00
2023-03-22T06:00:16.175Z,100.00
2023-03-22T06:02:43.609Z,100.00
2023-03-22T06:05:12.388Z,100.00
2023-03-22T06:07:39.880Z,100.00
2023-03-22T06:10:07.816Z,100.00
2023-03-22T06:12:34.874Z,100.00
2023-03-22T06:15:01.293Z,100.00
2023-03-22T06:17:28.119Z,100.00
2023-03-22T06:19:54.812Z,100.00
2023-03-22T06:22:21.930Z,100.00
2023-03-22T06:24:49.619Z,100.00
2023-03-22T06:27:16.294Z,100.00
2023-03-22T06:29:42.674Z,100.00
2023-03-22T06:32:09.205Z,100.00
2023-03-22T06:34:35.737Z,100.00
2023-03-22T06:37:02.197Z,100.00
2023-03-22T06:39:28.623Z,100.00
2023-03-22T06:41:55.260Z,100.00
2023-03-22T06:44:22.527Z,100.00
2023-03-22T06:46:48.973Z,100.00
2023-03-22T06:49:16.712Z,100.00
2023-03-22T06:51:43.151Z,100.00
2023-03-22T06:54:09.614Z,100.00
2023-03-22T06:56:35.970Z,100.00
2023-03-22T06:59:02.378Z,100.00
2023-03-22T07:01:28.716Z,100.00
2023-03-22T07:03:55.166Z,100.00
2023-03-22T07:06:21.566Z,100.00
2023-03-22T07:08:49.115Z,100.00
2023-03-22T07:11:16.518Z,100.00
2023-03-22T07:13:42.967Z,100.00
2023-03-22T07:16:09.748Z,100.00
2023-03-22T07:18:36.687Z,100.00
2023-03-22T07:21:03.697Z,100.00
2023-03-22T07:23:30.575Z,100.00
2023-03-22T07:25:59.144Z,100.00
2023-03-22T07:28:25.711Z,100.00
2023-03-22T07:31:07.230Z,100.00
2023-03-22T07:33:33.599Z,100.00
2023-03-22T07:36:00.005Z,100.00
2023-03-22T07:38:26.512Z,100.00
2023-03-22T07:40:54.879Z,100.00
2023-03-22T07:43:21.923Z,100.00
2023-03-22T07:45:49.886Z,100.00
2023-03-22T07:48:17.325Z,100.00
2023-03-22T07:50:44.235Z,100.00
2023-03-22T07:53:11.330Z,100.00
2023-03-22T07:55:38.116Z,100.00
2023-03-22T07:58:05.742Z,100.00
2023-03-22T08:00:32.434Z,100.00
2023-03-22T08:02:58.981Z,100.00
2023-03-22T08:05:25.710Z,100.00
2023-03-22T08:07:52.476Z,100.00
2023-03-22T08:10:19.413Z,100.00
2023-03-22T08:12:46.202Z,100.00
2023-03-22T08:15:12.902Z,100.00
2023-03-22T08:17:39.277Z,100.00
2023-03-22T08:20:09.183Z,100.00
2023-03-22T08:22:36.411Z,100.00
2023-03-22T08:25:04.685Z,100.00
2023-03-22T08:27:31.570Z,100.00
2023-03-22T08:29:58.251Z,100.00
2023-03-22T08:32:24.793Z,100.00
2023-03-22T08:34:51.262Z,100.00
2023-03-22T08:37:20.242Z,100.00
2023-03-22T08:39:47.095Z,100.00
2023-03-22T08:42:13.567Z,100.00
2023-03-22T08:44:40.158Z,100.00
2023-03-22T08:47:08.607Z,100.00
2023-03-22T08:49:35.599Z,100.00
2023-03-22T08:52:02.091Z,99.90
2023-03-22T08:54:33.678Z,99.62
2023-03-22T08:57:00.651Z,98.36
2023-03-22T08:59:27.819Z,98.60
2023-03-22T09:01:54.336Z,98.30
2023-03-22T09:04:20.780Z,97.94
2023-03-22T09:06:47.286Z,97.94
2023-03-22T09:09:13.763Z,97.40
2023-03-22T09:11:42.425Z,98.35
2023-03-22T09:14:10.122Z,97.15
2023-03-22T09:16:36.876Z,97.08
2023-03-22T09:19:03.859Z,95.17
2023-03-22T09:21:30.537Z,94.70
2023-03-22T09:23:56.948Z,94.56
2023-03-22T09:26:24.124Z,93.66
2023-03-22T09:28:50.916Z,93.65
2023-03-22T09:31:20.337Z,92.35
2023-03-22T09:33:47.025Z,92.29
2023-03-22T09:36:13.902Z,91.57
2023-03-22T09:38:41.984Z,91.24
2023-03-22T09:41:36.788Z,90.52
2023-03-22T09:44:07.385Z,88.95
2023-03-22T09:46:37.192Z,88.90
2023-03-22T09:49:10.832Z,88.23
2023-03-22T09:51:54.421Z,88.12
2023-03-22T09:54:41.152Z,86.11
2023-03-22T09:57:20.410Z,87.13
2023-03-22T10:00:00.838Z,85.41
2023-03-22T10:02:45.764Z,84.26
2023-03-22T10:05:33.718Z,84.13
2023-03-22T10:08:12.769Z,83.45
2023-03-22T10:10:43.031Z,82.87
2023-03-22T10:13:27.209Z,80.99
2023-03-22T10:16:06.529Z,80.43
2023-03-22T10:18:37.107Z,79.94
2023-03-22T10:21:05.083Z,78.85
2023-03-22T10:23:44.135Z,78.62
2023-03-22T10:26:19.973Z,78.01
2023-03-22T10:28:53.548Z,77.96
2023-03-22T10:31:21.225Z,76.56
2023-03-22T10:34:03.520Z,76.65
2023-03-22T10:36:34.742Z,77.33
2023-03-22T10:39:08.983Z,76.49
2023-03-22T10:41:36.421Z,75.92
2023-03-22T10:44:05.370Z,74.75
2023-03-22T10:46:38.388Z,73.70
2023-03-22T10:49:07.202Z,74.32
2023-03-22T10:51:51.584Z,73.71
2023-03-22T10:54:21.178Z,72.63
2023-03-22T10:56:47.799Z,72.48
2023-03-22T10:59:49.567Z,73.73
2023-03-22T11:02:22.005Z,71.33
2023-03-22T11:04:54.603Z,71.25
2023-03-22T11:07:42.641Z,70.85
2023-03-22T11:10:09.033Z,72.04
2023-03-22T11:12:39.949Z,69.32
2023-03-22T11:15:18.127Z,70.15
2023-03-22T11:17:44.476Z,68.60
2023-03-22T11:20:17.043Z,68.68
2023-03-22T11:22:46.119Z,66.59
2023-03-22T11:25:18.755Z,67.04
2023-03-22T11:28:09.374Z,66.62
2023-03-22T11:30:37.147Z,66.54
2023-03-22T11:33:16.857Z,66.21
2023-03-22T11:35:53.673Z,66.79
2023-03-22T11:38:29.803Z,65.18
2023-03-22T11:41:02.322Z,64.96
2023-03-22T11:43:39.219Z,63.28
2023-03-22T11:46:08.481Z,63.80
2023-03-22T11:48:36.708Z,63.83
2023-03-22T11:51:12.439Z,63.00
2023-03-22T11:53:43.011Z,63.07
2023-03-22T11:56:12.377Z,62.50
2023-03-22T11:58:48.567Z,63.02
2023-03-22T12:01:40.772Z,63.57
2023-03-22T12:04:17.631Z,64.34
2023-03-22T12:06:44.296Z,63.94
2023-03-22T12:09:25.544Z,63.11
2023-03-22T12:11:55.186Z,63.15
2023-03-22T12:14:40.182Z,61.49
2023-03-22T12:17:38.561Z,61.66
2023-03-22T12:20:27.552Z,62.24
2023-03-22T12:22:55.150Z,61.22
2023-03-22T12:25:26.971Z,62.13
2023-03-22T12:28:01.113Z,61.38
2023-03-22T12:30:31.632Z,60.59
2023-03-22T12:33:06.585Z,59.79
2023-03-22T12:35:36.262Z,60.71
2023-03-22T12:38:19.074Z,59.43
2023-03-22T12:40:47.592Z,58.89
2023-03-22T12:43:30.983Z,60.42
2023-03-22T12:46:02.240Z,59.48
2023-03-22T12:48:34.911Z,58.06
2023-03-22T12:51:07.450Z,57.54
2023-03-22T12:53:42.310Z,57.81
2023-03-22T12:56:12.935Z,57.57
2023-03-22T12:58:39.420Z,59.31
2023-03-22T13:01:45.121Z,58.86
2023-03-22T13:04:43.161Z,59.42
2023-03-22T13:07:37.204Z,60.56
2023-03-22T13:10:36.282Z,61.01
2023-03-22T13:13:23.040Z,60.32
2023-03-22T13:16:10.925Z,60.65
2023-03-22T13:18:40.311Z,60.47
2023-03-22T13:21:19.033Z,59.67
2023-03-22T13:24:10.415Z,59.69
2023-03-22T13:26:53.305Z,60.23
2023-03-22T13:29:38.400Z,59.60
2023-03-22T13:32:20.933Z,59.64
2023-03-22T13:34:52.110Z,59.78
2023-03-22T13:37:37.205Z,59.91
2023-03-22T13:40:31.800Z,59.17
2023-03-22T13:43:19.829Z,58.48
2023-03-22T13:46:13.091Z,59.39
2023-03-22T13:48:48.397Z,60.03
2023-03-22T13:51:25.599Z,59.04
2023-03-22T13:54:06.691Z,58.31
2023-03-22T13:56:42.211Z,56.84
2023-03-22T13:59:13.476Z,57.03
2023-03-22T14:01:50.174Z,57.46
2023-03-22T14:04:22.692Z,56.72
2023-03-22T14:06:55.043Z,57.09
2023-03-22T14:09:44.555Z,57.59
2023-03-22T14:12:28.353Z,57.61
2023-03-22T14:15:05.028Z,57.19
2023-03-22T14:17:46.489Z,57.81
2023-03-22T14:20:19.138Z,57.86
